sensor_id;sensor_type;location;lat;lon;timestamp;P1;durP1;ratioP1;P2;durP2;ratioP2
48211;SDS011;34000;48.772;9.162;2022-10-13T00:01:23;14.57;;;6.53;;
48211;SDS011;34000;48.772;9.162;2022-10-13T00:03:49;11.00;;;6.20;;
48211;SDS011;34000;48.772;9.162;2022-10-13T00:06:16;12.30;;;5.82;;
48211;SDS011;34000;48.772;9.162;2022-10-13T00:08:43;12.95;;;6.05;;
48211;SDS011;34000;48.772;9.162;2022-10-13T00:11:11;11.20;;;6.05;;
48211;SDS011;34000;48.772;9.162;2022-10-13T00:13:45;14.15;;;6.50;;
48211;SDS011;34000;48.772;9.162;2022-10-13T00:16:13;12.98;;;6.32;;
48211;SDS011;34000;48.772;9.162;2022-10-13T00:18:39;14.43;;;6.43;;
48211;SDS011;34000;48.772;9.162;2022-10-13T00:21:09;9.95;;;6.00;;
48211;SDS011;34000;48.772;9.162;2022-10-13T00:23:37;12.32;;;6.90;;
48211;SDS011;34000;48.772;9.162;2022-10-13T00:26:03;16.50;;;7.68;;
48211;SDS011;34000;48.772;9.162;2022-10-13T00:28:30;15.82;;;7.22;;
48211;SDS011;34000;48.772;9.162;2022-10-13T00:30:56;15.98;;;7.07;;
48211;SDS011;34000;48.772;9.162;2022-10-13T00:33:21;10.90;;;7.13;;
48211;SDS011;34000;48.772;9.162;2022-10-13T00:35:48;13.45;;;7.18;;
48211;SDS011;34000;48.772;9.162;2022-10-13T00:38:14;16.80;;;7.45;;
48211;SDS011;34000;48.772;9.162;2022-10-13T00:40:42;13.90;;;6.88;;
48211;SDS011;34000;48.772;9.162;2022-10-13T00:43:14;18.40;;;7.78;;
48211;SDS011;34000;48.772;9.162;2022-10-13T00:45:42;18.58;;;7.68;;
48211;SDS011;34000;48.772;9.162;2022-10-13T00:48:07;17.73;;;7.55;;
48211;SDS011;34000;48.772;9.162;2022-10-13T00:50:37;16.95;;;7.72;;
48211;SDS011;34000;48.772;9.162;2022-10-13T00:53:04;15.07;;;7.55;;
48211;SDS011;34000;48.772;9.162;2022-10-13T00:55:32;19.33;;;8.57;;
48211;SDS011;34000;48.772;9.162;2022-10-13T00:58:02;17.98;;;7.50;;
48211;SDS011;34000;48.772;9.162;2022-10-13T01:00:30;14.50;;;8.10;;
48211;SDS011;34000;48.772;9.162;2022-10-13T01:02:57;17.38;;;8.27;;
48211;SDS011;34000;48.772;9.162;2022-10-13T01:05:23;17.30;;;7.63;;
48211;SDS011;34000;48.772;9.162;2022-10-13T01:07:49;19.23;;;9.40;;
48211;SDS011;34000;48.772;9.162;2022-10-13T01:10:16;18.95;;;8.80;;
48211;SDS011;34000;48.772;9.162;2022-10-13T01:15:40;14.75;;;7.57;;
48211;SDS011;34000;48.772;9.162;2022-10-13T01:26:08;19.10;;;8.38;;
48211;SDS011;34000;48.772;9.162;2022-10-13T01:31:40;15.55;;;8.02;;
48211;SDS011;34000;48.772;9.162;2022-10-13T01:39:58;18.00;;;7.88;;
48211;SDS011;34000;48.772;9.162;2022-10-13T01:45:27;14.70;;;7.93;;
48211;SDS011;34000;48.772;9.162;2022-10-13T01:48:01;18.85;;;8.50;;
48211;SDS011;34000;48.772;9.162;2022-10-13T01:50:28;18.60;;;8.15;;
48211;SDS011;34000;48.772;9.162;2022-10-13T01:52:57;19.15;;;8.70;;
48211;SDS011;34000;48.772;9.162;2022-10-13T01:55:25;19.25;;;9.30;;
48211;SDS011;34000;48.772;9.162;2022-10-13T01:57:53;20.45;;;9.10;;
48211;SDS011;34000;48.772;9.162;2022-10-13T02:00:19;20.10;;;8.85;;
48211;SDS011;34000;48.772;9.162;2022-10-13T02:05:33;19.10;;;8.93;;
48211;SDS011;34000;48.772;9.162;2022-10-13T02:11:12;21.00;;;8.93;;
48211;SDS011;34000;48.772;9.162;2022-10-13T02:13:52;17.35;;;8.32;;
48211;SDS011;34000;48.772;9.162;2022-10-13T02:16:39;20.25;;;9.65;;
48211;SDS011;34000;48.772;9.162;2022-10-13T02:19:08;21.33;;;9.07;;
48211;SDS011;34000;48.772;9.162;2022-10-13T02:21:36;20.08;;;8.13;;
48211;SDS011;34000;48.772;9.162;2022-10-13T02:24:03;16.58;;;8.38;;
48211;SDS011;34000;48.772;9.162;2022-10-13T02:26:30;19.50;;;8.23;;
48211;SDS011;34000;48.772;9.162;2022-10-13T02:28:57;17.63;;;8.38;;
48211;SDS011;34000;48.772;9.162;2022-10-13T02:31:22;20.63;;;8.35;;
48211;SDS011;34000;48.772;9.162;2022-10-13T02:33:48;14.38;;;7.57;;
48211;SDS011;34000;48.772;9.162;2022-10-13T02:36:14;15.85;;;8.10;;
48211;SDS011;34000;48.772;9.162;2022-10-13T02:38:39;17.83;;;8.13;;
48211;SDS011;34000;48.772;9.162;2022-10-13T02:41:05;16.15;;;8.32;;
48211;SDS011;34000;48.772;9.162;2022-10-13T02:43:30;22.42;;;8.35;;
48211;SDS011;34000;48.772;9.162;2022-10-13T02:45:58;18.15;;;7.97;;
48211;SDS011;34000;48.772;9.162;2022-10-13T02:48:23;19.63;;;9.38;;
48211;SDS011;34000;48.772;9.162;2022-10-13T02:50:49;18.13;;;8.85;;
48211;SDS011;34000;48.772;9.162;2022-10-13T02:53:15;21.55;;;8.25;;
48211;SDS011;34000;48.772;9.162;2022-10-13T02:55:40;19.52;;;8.55;;
48211;SDS011;34000;48.772;9.162;2022-10-13T02:58:06;21.08;;;8.77;;
48211;SDS011;34000;48.772;9.162;2022-10-13T03:00:32;16.40;;;7.68;;
48211;SDS011;34000;48.772;9.162;2022-10-13T03:02:57;21.77;;;8.60;;
48211;SDS011;34000;48.772;9.162;2022-10-13T03:05:23;20.02;;;8.70;;
48211;SDS011;34000;48.772;9.162;2022-10-13T03:07:49;21.90;;;8.80;;
48211;SDS011;34000;48.772;9.162;2022-10-13T03:10:15;21.88;;;8.95;;
48211;SDS011;34000;48.772;9.162;2022-10-13T03:12:40;17.55;;;8.30;;
48211;SDS011;34000;48.772;9.162;2022-10-13T03:15:06;18.90;;;7.90;;
48211;SDS011;34000;48.772;9.162;2022-10-13T03:17:32;17.70;;;8.55;;
48211;SDS011;34000;48.772;9.162;2022-10-13T03:19:58;16.08;;;8.60;;
48211;SDS011;34000;48.772;9.162;2022-10-13T03:22:23;14.65;;;7.63;;
48211;SDS011;34000;48.772;9.162;2022-10-13T03:24:49;18.17;;;8.15;;
48211;SDS011;34000;48.772;9.162;2022-10-13T03:27:14;21.77;;;8.13;;
48211;SDS011;34000;48.772;9.162;2022-10-13T03:29:41;17.33;;;7.68;;
48211;SDS011;34000;48.772;9.162;2022-10-13T03:32:06;15.35;;;7.20;;
48211;SDS011;34000;48.772;9.162;2022-10-13T03:34:32;17.65;;;8.00;;
48211;SDS011;34000;48.772;9.162;2022-10-13T03:36:58;18.48;;;8.68;;
48211;SDS011;34000;48.772;9.162;2022-10-13T03:39:23;15.48;;;7.88;;
48211;SDS011;34000;48.772;9.162;2022-10-13T03:41:49;15.25;;;7.82;;
48211;SDS011;34000;48.772;9.162;2022-10-13T03:44:14;14.88;;;7.47;;
48211;SDS011;34000;48.772;9.162;2022-10-13T03:46:40;17.02;;;7.80;;
48211;SDS011;34000;48.772;9.162;2022-10-13T03:49:06;14.55;;;8.20;;
48211;SDS011;34000;48.772;9.162;2022-10-13T03:51:31;13.15;;;6.20;;
48211;SDS011;34000;48.772;9.162;2022-10-13T03:53:57;15.95;;;8.55;;
48211;SDS011;34000;48.772;9.162;2022-10-13T03:56:24;15.35;;;8.50;;
48211;SDS011;34000;48.772;9.162;2022-10-13T03:58:51;16.90;;;8.13;;
48211;SDS011;34000;48.772;9.162;2022-10-13T04:01:23;17.58;;;7.53;;
48211;SDS011;34000;48.772;9.162;2022-10-13T04:03:51;19.45;;;8.57;;
48211;SDS011;34000;48.772;9.162;2022-10-13T04:06:19;15.60;;;8.32;;
48211;SDS011;34000;48.772;9.162;2022-10-13T04:08:45;14.68;;;7.30;;
48211;SDS011;34000;48.772;9.162;2022-10-13T04:11:11;15.15;;;8.20;;
48211;SDS011;34000;48.772;9.162;2022-10-13T04:13:38;16.90;;;7.50;;
48211;SDS011;34000;48.772;9.162;2022-10-13T04:16:06;11.38;;;6.35;;
48211;SDS011;34000;48.772;9.162;2022-10-13T04:18:39;20.73;;;8.07;;
48211;SDS011;34000;48.772;9.162;2022-10-13T04:21:06;14.45;;;7.15;;
48211;SDS011;34000;48.772;9.162;2022-10-13T04:23:34;14.55;;;7.57;;
48211;SDS011;34000;48.772;9.162;2022-10-13T04:26:00;17.38;;;8.02;;
48211;SDS011;34000;48.772;9.162;2022-10-13T04:28:25;16.73;;;7.07;;
48211;SDS011;34000;48.772;9.162;2022-10-13T04:30:51;16.08;;;7.22;;
48211;SDS011;34000;48.772;9.162;2022-10-13T04:33:16;15.80;;;7.65;;
48211;SDS011;34000;48.772;9.162;2022-10-13T04:35:42;16.52;;;7.60;;
48211;SDS011;34000;48.772;9.162;2022-10-13T04:38:08;16.80;;;8.07;;
48211;SDS011;34000;48.772;9.162;2022-10-13T04:40:33;20.33;;;10.15;;
48211;SDS011;34000;48.772;9.162;2022-10-13T04:42:59;15.85;;;7.85;;
48211;SDS011;34000;48.772;9.162;2022-10-13T04:45:25;13.48;;;7.38;;
48211;SDS011;34000;48.772;9.162;2022-10-13T04:47:51;14.63;;;7.80;;
48211;SDS011;34000;48.772;9.162;2022-10-13T04:50:17;17.50;;;7.80;;
48211;SDS011;34000;48.772;9.162;2022-10-13T04:52:43;13.50;;;7.03;;
48211;SDS011;34000;48.772;9.162;2022-10-13T04:55:09;16.35;;;7.63;;
48211;SDS011;34000;48.772;9.162;2022-10-13T04:57:34;17.83;;;7.78;;
48211;SDS011;34000;48.772;9.162;2022-10-13T05:00:00;15.13;;;7.60;;
48211;SDS011;34000;48.772;9.162;2022-10-13T05:02:26;15.77;;;7.47;;
48211;SDS011;34000;48.772;9.162;2022-10-13T05:04:51;14.02;;;6.80;;
48211;SDS011;34000;48.772;9.162;2022-10-13T05:07:17;12.02;;;6.20;;
48211;SDS011;34000;48.772;9.162;2022-10-13T05:09:43;13.32;;;7.03;;
48211;SDS011;34000;48.772;9.162;2022-10-13T05:12:08;14.32;;;7.05;;
48211;SDS011;34000;48.772;9.162;2022-10-13T05:14:34;14.65;;;7.25;;
48211;SDS011;34000;48.772;9.162;2022-10-13T05:16:59;12.75;;;6.35;;
48211;SDS011;34000;48.772;9.162;2022-10-13T05:19:26;12.45;;;6.57;;
48211;SDS011;34000;48.772;9.162;2022-10-13T05:21:52;13.00;;;6.57;;
48211;SDS011;34000;48.772;9.162;2022-10-13T05:24:17;17.15;;;7.28;;
48211;SDS011;34000;48.772;9.162;2022-10-13T05:26:54;16.05;;;8.13;;
48211;SDS011;34000;48.772;9.162;2022-10-13T05:29:20;12.25;;;6.47;;
48211;SDS011;34000;48.772;9.162;2022-10-13T05:31:46;14.55;;;7.68;;
48211;SDS011;34000;48.772;9.162;2022-10-13T05:34:12;18.13;;;6.95;;
48211;SDS011;34000;48.772;9.162;2022-10-13T05:36:38;15.70;;;7.72;;
48211;SDS011;34000;48.772;9.162;2022-10-13T05:39:04;15.05;;;7.53;;
48211;SDS011;34000;48.772;9.162;2022-10-13T05:41:33;15.18;;;7.63;;
48211;SDS011;34000;48.772;9.162;2022-10-13T05:44:00;18.73;;;7.82;;
48211;SDS011;34000;48.772;9.162;2022-10-13T05:46:28;15.45;;;7.95;;
48211;SDS011;34000;48.772;9.162;2022-10-13T05:48:54;21.00;;;7.82;;
48211;SDS011;34000;48.772;9.162;2022-10-13T05:51:21;17.73;;;7.70;;
48211;SDS011;34000;48.772;9.162;2022-10-13T05:53:51;14.45;;;8.43;;
48211;SDS011;34000;48.772;9.162;2022-10-13T05:56:23;17.73;;;7.85;;
48211;SDS011;34000;48.772;9.162;2022-10-13T05:58:54;13.00;;;7.53;;
48211;SDS011;34000;48.772;9.162;2022-10-13T06:01:29;15.68;;;7.63;;
48211;SDS011;34000;48.772;9.162;2022-10-13T06:03:58;21.30;;;8.15;;
48211;SDS011;34000;48.772;9.162;2022-10-13T06:06:27;15.75;;;7.55;;
48211;SDS011;34000;48.772;9.162;2022-10-13T06:08:53;17.67;;;8.98;;
48211;SDS011;34000;48.772;9.162;2022-10-13T06:11:18;17.00;;;8.18;;
48211;SDS011;34000;48.772;9.162;2022-10-13T06:13:44;15.13;;;7.53;;
48211;SDS011;34000;48.772;9.162;2022-10-13T06:16:10;19.05;;;7.63;;
48211;SDS011;34000;48.772;9.162;2022-10-13T06:18:35;19.27;;;8.00;;
48211;SDS011;34000;48.772;9.162;2022-10-13T06:21:01;13.27;;;7.13;;
48211;SDS011;34000;48.772;9.162;2022-10-13T06:23:27;17.27;;;8.20;;
48211;SDS011;34000;48.772;9.162;2022-10-13T06:25:52;19.17;;;7.80;;
48211;SDS011;34000;48.772;9.162;2022-10-13T06:28:18;18.80;;;8.32;;
48211;SDS011;34000;48.772;9.162;2022-10-13T06:30:45;15.23;;;8.32;;
48211;SDS011;34000;48.772;9.162;2022-10-13T06:33:17;18.38;;;8.07;;
48211;SDS011;34000;48.772;9.162;2022-10-13T06:35:43;14.32;;;7.38;;
48211;SDS011;34000;48.772;9.162;2022-10-13T06:38:08;16.95;;;7.78;;
48211;SDS011;34000;48.772;9.162;2022-10-13T06:40:34;16.83;;;8.20;;
48211;SDS011;34000;48.772;9.162;2022-10-13T06:43:00;21.08;;;9.15;;
48211;SDS011;34000;48.772;9.162;2022-10-13T06:45:25;19.48;;;8.00;;
48211;SDS011;34000;48.772;9.162;2022-10-13T06:47:52;20.48;;;8.18;;
48211;SDS011;34000;48.772;9.162;2022-10-13T06:50:18;17.52;;;8.55;;
48211;SDS011;34000;48.772;9.162;2022-10-13T06:52:44;18.58;;;8.18;;
48211;SDS011;34000;48.772;9.162;2022-10-13T06:55:10;20.00;;;8.63;;
48211;SDS011;34000;48.772;9.162;2022-10-13T06:57:35;14.32;;;8.20;;
48211;SDS011;34000;48.772;9.162;2022-10-13T07:00:01;15.23;;;8.07;;
48211;SDS011;34000;48.772;9.162;2022-10-13T07:02:28;13.65;;;7.57;;
48211;SDS011;34000;48.772;9.162;2022-10-13T07:04:53;16.40;;;8.43;;
48211;SDS011;34000;48.772;9.162;2022-10-13T07:07:19;16.10;;;8.18;;
48211;SDS011;34000;48.772;9.162;2022-10-13T07:09:45;21.10;;;7.90;;
48211;SDS011;34000;48.772;9.162;2022-10-13T07:12:11;14.30;;;6.63;;
48211;SDS011;34000;48.772;9.162;2022-10-13T07:14:37;12.88;;;6.93;;
48211;SDS011;34000;48.772;9.162;2022-10-13T07:17:03;13.52;;;6.85;;
48211;SDS011;34000;48.772;9.162;2022-10-13T07:19:28;16.08;;;6.78;;
48211;SDS011;34000;48.772;9.162;2022-10-13T07:21:55;16.80;;;7.53;;
48211;SDS011;34000;48.772;9.162;2022-10-13T07:24:20;19.65;;;7.82;;
48211;SDS011;34000;48.772;9.162;2022-10-13T07:26:46;13.27;;;6.13;;
48211;SDS011;34000;48.772;9.162;2022-10-13T07:29:12;14.77;;;6.50;;
48211;SDS011;34000;48.772;9.162;2022-10-13T07:31:38;13.73;;;6.38;;
48211;SDS011;34000;48.772;9.162;2022-10-13T07:34:04;13.68;;;6.95;;
48211;SDS011;34000;48.772;9.162;2022-10-13T07:36:31;16.52;;;7.18;;
48211;SDS011;34000;48.772;9.162;2022-10-13T07:38:57;13.70;;;6.55;;
48211;SDS011;34000;48.772;9.162;2022-10-13T07:41:23;14.23;;;7.13;;
48211;SDS011;34000;48.772;9.162;2022-10-13T07:43:52;14.70;;;6.93;;
48211;SDS011;34000;48.772;9.162;2022-10-13T07:46:19;15.18;;;6.85;;
48211;SDS011;34000;48.772;9.162;2022-10-13T07:48:45;16.35;;;7.55;;
48211;SDS011;34000;48.772;9.162;2022-10-13T07:51:12;13.05;;;7.30;;
48211;SDS011;34000;48.772;9.162;2022-10-13T07:53:38;11.57;;;6.35;;
48211;SDS011;34000;48.772;9.162;2022-10-13T07:56:06;15.52;;;6.97;;
48211;SDS011;34000;48.772;9.162;2022-10-13T07:58:38;13.52;;;7.18;;
48211;SDS011;34000;48.772;9.162;2022-10-13T08:01:06;14.95;;;7.05;;
48211;SDS011;34000;48.772;9.162;2022-10-13T08:03:32;9.82;;;5.50;;
48211;SDS011;34000;48.772;9.162;2022-10-13T08:05:58;19.00;;;6.22;;
48211;SDS011;34000;48.772;9.162;2022-10-13T08:08:25;7.88;;;4.35;;
48211;SDS011;34000;48.772;9.162;2022-10-13T08:10:52;13.98;;;6.10;;
48211;SDS011;34000;48.772;9.162;2022-10-13T08:13:18;13.82;;;6.70;;
48211;SDS011;34000;48.772;9.162;2022-10-13T08:15:43;16.65;;;6.63;;
48211;SDS011;34000;48.772;9.162;2022-10-13T08:18:10;11.07;;;5.30;;
48211;SDS011;34000;48.772;9.162;2022-10-13T08:20:40;12.82;;;6.40;;
48211;SDS011;34000;48.772;9.162;2022-10-13T08:23:07;12.05;;;5.28;;
48211;SDS011;34000;48.772;9.162;2022-10-13T08:25:40;13.05;;;6.40;;
48211;SDS011;34000;48.772;9.162;2022-10-13T08:28:25;10.15;;;4.38;;
48211;SDS011;34000;48.772;9.162;2022-10-13T08:30:52;14.10;;;6.13;;
48211;SDS011;34000;48.772;9.162;2022-10-13T08:33:21;12.57;;;5.75;;
48211;SDS011;34000;48.772;9.162;2022-10-13T08:35:50;9.18;;;5.22;;
48211;SDS011;34000;48.772;9.162;2022-10-13T08:38:17;9.25;;;6.35;;
48211;SDS011;34000;48.772;9.162;2022-10-13T08:40:49;12.60;;;6.15;;
48211;SDS011;34000;48.772;9.162;2022-10-13T08:43:16;12.60;;;6.43;;
48211;SDS011;34000;48.772;9.162;2022-10-13T08:45:45;11.75;;;5.72;;
48211;SDS011;34000;48.772;9.162;2022-10-13T08:48:17;11.63;;;4.88;;
48211;SDS011;34000;48.772;9.162;2022-10-13T08:50:48;9.00;;;4.60;;
48211;SDS011;34000;48.772;9.162;2022-10-13T08:58:40;16.58;;;5.00;;
48211;SDS011;34000;48.772;9.162;2022-10-13T09:06:51;9.50;;;5.15;;
48211;SDS011;34000;48.772;9.162;2022-10-13T09:09:20;10.32;;;5.53;;
48211;SDS011;34000;48.772;9.162;2022-10-13T09:11:46;8.57;;;4.53;;
48211;SDS011;34000;48.772;9.162;2022-10-13T09:14:24;9.55;;;4.32;;
48211;SDS011;34000;48.772;9.162;2022-10-13T09:19:41;8.50;;;4.50;;
48211;SDS011;34000;48.772;9.162;2022-10-13T09:27:43;7.00;;;3.88;;
48211;SDS011;34000;48.772;9.162;2022-10-13T09:35:35;6.68;;;4.00;;
48211;SDS011;34000;48.772;9.162;2022-10-13T09:43:35;6.35;;;4.10;;
48211;SDS011;34000;48.772;9.162;2022-10-13T09:46:18;9.80;;;4.68;;
48211;SDS011;34000;48.772;9.162;2022-10-13T09:48:48;14.18;;;4.63;;
48211;SDS011;34000;48.772;9.162;2022-10-13T09:51:27;8.73;;;4.07;;
48211;SDS011;34000;48.772;9.162;2022-10-13T09:53:57;9.93;;;4.30;;
48211;SDS011;34000;48.772;9.162;2022-10-13T09:56:40;8.35;;;3.75;;
48211;SDS011;34000;48.772;9.162;2022-10-13T10:01:48;8.10;;;3.67;;
48211;SDS011;34000;48.772;9.162;2022-10-13T10:04:16;6.82;;;3.85;;
48211;SDS011;34000;48.772;9.162;2022-10-13T10:06:47;8.30;;;3.47;;
48211;SDS011;34000;48.772;9.162;2022-10-13T10:11:51;8.80;;;4.28;;
48211;SDS011;34000;48.772;9.162;2022-10-13T10:23:04;8.18;;;3.70;;
48211;SDS011;34000;48.772;9.162;2022-10-13T10:25:38;8.40;;;3.75;;
48211;SDS011;34000;48.772;9.162;2022-10-13T10:28:15;7.47;;;3.33;;
48211;SDS011;34000;48.772;9.162;2022-10-13T10:36:56;10.60;;;4.38;;
48211;SDS011;34000;48.772;9.162;2022-10-13T10:39:45;7.20;;;3.65;;
48211;SDS011;34000;48.772;9.162;2022-10-13T10:45:17;10.10;;;4.13;;
48211;SDS011;34000;48.772;9.162;2022-10-13T10:47:50;12.35;;;3.67;;
48211;SDS011;34000;48.772;9.162;2022-10-13T10:50:20;6.82;;;3.42;;
48211;SDS011;34000;48.772;9.162;2022-10-13T10:53:06;6.43;;;3.33;;
48211;SDS011;34000;48.772;9.162;2022-10-13T11:01:48;7.35;;;4.22;;
48211;SDS011;34000;48.772;9.162;2022-10-13T11:07:09;8.88;;;4.10;;
48211;SDS011;34000;48.772;9.162;2022-10-13T11:17:35;10.15;;;4.38;;
48211;SDS011;34000;48.772;9.162;2022-10-13T11:30:51;7.43;;;4.00;;
48211;SDS011;34000;48.772;9.162;2022-10-13T11:41:25;14.30;;;4.18;;
48211;SDS011;34000;48.772;9.162;2022-10-13T11:46:38;5.35;;;3.38;;
48211;SDS011;34000;48.772;9.162;2022-10-13T11:52:12;6.28;;;3.40;;
48211;SDS011;34000;48.772;9.162;2022-10-13T11:55:12;5.55;;;3.17;;
48211;SDS011;34000;48.772;9.162;2022-10-13T11:57:42;3.88;;;2.90;;
48211;SDS011;34000;48.772;9.162;2022-10-13T12:00:15;7.45;;;3.38;;
48211;SDS011;34000;48.772;9.162;2022-10-13T12:02:49;6.68;;;2.75;;
48211;SDS011;34000;48.772;9.162;2022-10-13T12:05:23;6.90;;;3.60;;
48211;SDS011;34000;48.772;9.162;2022-10-13T12:07:54;7.55;;;3.15;;
48211;SDS011;34000;48.772;9.162;2022-10-13T12:10:30;6.72;;;3.47;;
48211;SDS011;34000;48.772;9.162;2022-10-13T12:12:57;6.28;;;3.38;;
48211;SDS011;34000;48.772;9.162;2022-10-13T12:15:26;6.00;;;3.40;;
48211;SDS011;34000;48.772;9.162;2022-10-13T12:17:59;5.55;;;3.13;;
48211;SDS011;34000;48.772;9.162;2022-10-13T12:20:27;6.40;;;3.13;;
48211;SDS011;34000;48.772;9.162;2022-10-13T12:22:55;5.30;;;2.63;;
48211;SDS011;34000;48.772;9.162;2022-10-13T12:25:22;5.63;;;2.80;;
48211;SDS011;34000;48.772;9.162;2022-10-13T12:27:51;3.97;;;2.97;;
48211;SDS011;34000;48.772;9.162;2022-10-13T12:30:26;6.72;;;3.63;;
48211;SDS011;34000;48.772;9.162;2022-10-13T12:33:00;6.18;;;3.00;;
48211;SDS011;34000;48.772;9.162;2022-10-13T12:35:29;7.50;;;2.88;;
48211;SDS011;34000;48.772;9.162;2022-10-13T12:37:57;23.88;;;8.88;;
48211;SDS011;34000;48.772;9.162;2022-10-13T12:40:26;5.60;;;2.70;;
48211;SDS011;34000;48.772;9.162;2022-10-13T12:42:53;4.78;;;2.55;;
48211;SDS011;34000;48.772;9.162;2022-10-13T12:45:20;4.55;;;2.17;;
48211;SDS011;34000;48.772;9.162;2022-10-13T12:47:49;6.95;;;2.80;;
48211;SDS011;34000;48.772;9.162;2022-10-13T12:50:20;7.97;;;2.50;;
48211;SDS011;34000;48.772;9.162;2022-10-13T12:52:46;4.07;;;2.70;;
48211;SDS011;34000;48.772;9.162;2022-10-13T12:55:13;7.93;;;3.08;;
48211;SDS011;34000;48.772;9.162;2022-10-13T12:57:43;7.95;;;2.92;;
48211;SDS011;34000;48.772;9.162;2022-10-13T13:02:56;6.07;;;2.95;;
48211;SDS011;34000;48.772;9.162;2022-10-13T13:05:42;6.13;;;3.45;;
48211;SDS011;34000;48.772;9.162;2022-10-13T13:11:21;5.43;;;2.85;;
48211;SDS011;34000;48.772;9.162;2022-10-13T13:13:48;5.75;;;2.80;;
48211;SDS011;34000;48.772;9.162;2022-10-13T13:16:15;6.53;;;2.83;;
48211;SDS011;34000;48.772;9.162;2022-10-13T13:18:44;4.78;;;2.42;;
48211;SDS011;34000;48.772;9.162;2022-10-13T13:21:11;6.00;;;2.88;;
48211;SDS011;34000;48.772;9.162;2022-10-13T13:23:38;6.05;;;2.58;;
48211;SDS011;34000;48.772;9.162;2022-10-13T13:26:14;7.35;;;2.67;;
48211;SDS011;34000;48.772;9.162;2022-10-13T13:28:43;5.20;;;2.50;;
48211;SDS011;34000;48.772;9.162;2022-10-13T13:31:11;4.85;;;2.72;;
48211;SDS011;34000;48.772;9.162;2022-10-13T13:33:37;5.50;;;2.72;;
48211;SDS011;34000;48.772;9.162;2022-10-13T13:36:03;5.82;;;2.88;;
48211;SDS011;34000;48.772;9.162;2022-10-13T13:38:37;14.70;;;4.07;;
48211;SDS011;34000;48.772;9.162;2022-10-13T13:41:03;11.38;;;4.57;;
48211;SDS011;34000;48.772;9.162;2022-10-13T13:43:28;7.45;;;3.70;;
48211;SDS011;34000;48.772;9.162;2022-10-13T13:45:54;7.78;;;2.80;;
48211;SDS011;34000;48.772;9.162;2022-10-13T13:48:19;6.50;;;2.47;;
48211;SDS011;34000;48.772;9.162;2022-10-13T13:50:45;7.65;;;2.80;;
48211;SDS011;34000;48.772;9.162;2022-10-13T13:53:11;6.75;;;2.60;;
48211;SDS011;34000;48.772;9.162;2022-10-13T13:55:36;7.38;;;3.63;;
48211;SDS011;34000;48.772;9.162;2022-10-13T13:58:02;5.43;;;2.70;;
48211;SDS011;34000;48.772;9.162;2022-10-13T14:00:27;4.85;;;2.80;;
48211;SDS011;34000;48.772;9.162;2022-10-13T14:02:54;5.20;;;2.50;;
48211;SDS011;34000;48.772;9.162;2022-10-13T14:05:20;8.30;;;3.13;;
48211;SDS011;34000;48.772;9.162;2022-10-13T14:07:45;6.30;;;2.60;;
48211;SDS011;34000;48.772;9.162;2022-10-13T14:10:11;6.40;;;2.85;;
48211;SDS011;34000;48.772;9.162;2022-10-13T14:12:37;5.80;;;3.00;;
48211;SDS011;34000;48.772;9.162;2022-10-13T14:15:03;10.15;;;3.20;;
48211;SDS011;34000;48.772;9.162;2022-10-13T14:17:29;7.80;;;4.10;;
48211;SDS011;34000;48.772;9.162;2022-10-13T14:19:54;6.20;;;3.30;;
48211;SDS011;34000;48.772;9.162;2022-10-13T14:22:20;7.78;;;3.63;;
48211;SDS011;34000;48.772;9.162;2022-10-13T14:24:46;4.32;;;2.88;;
48211;SDS011;34000;48.772;9.162;2022-10-13T14:27:12;16.08;;;6.65;;
48211;SDS011;34000;48.772;9.162;2022-10-13T14:29:37;6.05;;;2.88;;
48211;SDS011;34000;48.772;9.162;2022-10-13T14:32:03;5.82;;;3.05;;
48211;SDS011;34000;48.772;9.162;2022-10-13T14:34:28;6.10;;;3.25;;
48211;SDS011;34000;48.772;9.162;2022-10-13T14:36:54;10.50;;;3.08;;
48211;SDS011;34000;48.772;9.162;2022-10-13T14:39:20;9.23;;;2.88;;
48211;SDS011;34000;48.772;9.162;2022-10-13T14:41:45;5.82;;;2.95;;
48211;SDS011;34000;48.772;9.162;2022-10-13T14:44:12;3.90;;;3.00;;
48211;SDS011;34000;48.772;9.162;2022-10-13T14:46:38;4.97;;;2.97;;
48211;SDS011;34000;48.772;9.162;2022-10-13T14:49:04;7.78;;;3.70;;
48211;SDS011;34000;48.772;9.162;2022-10-13T14:51:30;7.18;;;2.97;;
48211;SDS011;34000;48.772;9.162;2022-10-13T14:53:56;10.57;;;4.65;;
48211;SDS011;34000;48.772;9.162;2022-10-13T14:56:23;11.52;;;4.43;;
48211;SDS011;34000;48.772;9.162;2022-10-13T14:58:51;19.60;;;7.93;;
48211;SDS011;34000;48.772;9.162;2022-10-13T15:01:20;7.75;;;4.32;;
48211;SDS011;34000;48.772;9.162;2022-10-13T15:03:45;6.53;;;3.83;;
48211;SDS011;34000;48.772;9.162;2022-10-13T15:06:16;7.93;;;3.75;;
48211;SDS011;34000;48.772;9.162;2022-10-13T15:08:43;7.93;;;3.90;;
48211;SDS011;34000;48.772;9.162;2022-10-13T15:11:09;10.00;;;4.07;;
48211;SDS011;34000;48.772;9.162;2022-10-13T15:13:36;10.52;;;4.30;;
48211;SDS011;34000;48.772;9.162;2022-10-13T15:16:02;8.38;;;3.33;;
48211;SDS011;34000;48.772;9.162;2022-10-13T15:18:29;20.98;;;6.85;;
48211;SDS011;34000;48.772;9.162;2022-10-13T15:20:56;8.10;;;4.50;;
48211;SDS011;34000;48.772;9.162;2022-10-13T15:23:22;7.00;;;3.70;;
48211;SDS011;34000;48.772;9.162;2022-10-13T15:25:49;9.23;;;4.47;;
48211;SDS011;34000;48.772;9.162;2022-10-13T15:28:16;8.43;;;4.10;;
48211;SDS011;34000;48.772;9.162;2022-10-13T15:30:41;7.78;;;4.32;;
48211;SDS011;34000;48.772;9.162;2022-10-13T15:33:07;9.48;;;4.60;;
48211;SDS011;34000;48.772;9.162;2022-10-13T15:35:32;8.63;;;4.60;;
48211;SDS011;34000;48.772;9.162;2022-10-13T15:37:58;10.82;;;4.47;;
48211;SDS011;34000;48.772;9.162;2022-10-13T15:40:23;11.60;;;4.88;;
48211;SDS011;34000;48.772;9.162;2022-10-13T15:42:49;12.15;;;5.75;;
48211;SDS011;34000;48.772;9.162;2022-10-13T15:45:16;11.63;;;5.07;;
48211;SDS011;34000;48.772;9.162;2022-10-13T15:47:42;7.90;;;4.57;;
48211;SDS011;34000;48.772;9.162;2022-10-13T15:50:07;10.63;;;5.00;;
48211;SDS011;34000;48.772;9.162;2022-10-13T15:52:37;17.27;;;7.07;;
48211;SDS011;34000;48.772;9.162;2022-10-13T15:55:04;15.82;;;8.13;;
48211;SDS011;34000;48.772;9.162;2022-10-13T15:57:30;10.20;;;6.18;;
48211;SDS011;34000;48.772;9.162;2022-10-13T15:59:56;12.88;;;6.68;;
48211;SDS011;34000;48.772;9.162;2022-10-13T16:02:21;13.80;;;5.88;;
48211;SDS011;34000;48.772;9.162;2022-10-13T16:04:48;11.05;;;5.75;;
48211;SDS011;34000;48.772;9.162;2022-10-13T16:07:13;8.30;;;4.82;;
48211;SDS011;34000;48.772;9.162;2022-10-13T16:09:39;11.60;;;4.85;;
48211;SDS011;34000;48.772;9.162;2022-10-13T16:12:05;9.75;;;4.90;;
48211;SDS011;34000;48.772;9.162;2022-10-13T16:14:30;10.23;;;5.47;;
48211;SDS011;34000;48.772;9.162;2022-10-13T16:16:56;11.10;;;4.93;;
48211;SDS011;34000;48.772;9.162;2022-10-13T16:19:21;8.65;;;4.47;;
48211;SDS011;34000;48.772;9.162;2022-10-13T16:21:47;9.40;;;5.10;;
48211;SDS011;34000;48.772;9.162;2022-10-13T16:24:13;9.15;;;5.10;;
48211;SDS011;34000;48.772;9.162;2022-10-13T16:26:38;10.90;;;5.60;;
48211;SDS011;34000;48.772;9.162;2022-10-13T16:29:04;13.55;;;5.70;;
48211;SDS011;34000;48.772;9.162;2022-10-13T16:31:29;11.60;;;5.63;;
48211;SDS011;34000;48.772;9.162;2022-10-13T16:33:55;11.68;;;5.40;;
48211;SDS011;34000;48.772;9.162;2022-10-13T16:36:21;12.45;;;5.47;;
48211;SDS011;34000;48.772;9.162;2022-10-13T16:38:47;8.07;;;5.47;;
48211;SDS011;34000;48.772;9.162;2022-10-13T16:41:14;14.68;;;5.82;;
48211;SDS011;34000;48.772;9.162;2022-10-13T16:43:41;10.75;;;5.43;;
48211;SDS011;34000;48.772;9.162;2022-10-13T16:46:08;10.35;;;5.82;;
48211;SDS011;34000;48.772;9.162;2022-10-13T16:48:37;11.52;;;5.43;;
48211;SDS011;34000;48.772;9.162;2022-10-13T16:51:04;12.10;;;5.82;;